createdAt,value
2018-05-24T00:01:50.999Z,91.29
2018-05-24T00:04:18.713Z,91.63
2018-05-24T00:06:46.390Z,92.26
2018-05-24T00:09:13.992Z,91.74
2018-05-24T00:11:41.562Z,91.53
2018-05-24T00:14:09.193Z,91.48
2018-05-24T00:16:36.815Z,91.80
2018-05-24T00:19:04.390Z,91.96
2018-05-24T00:21:31.999Z,92.28
2018-05-24T00:23:59.580Z,92.55
2018-05-24T00:26:27.161Z,92.67
2018-05-24T00:28:54.800Z,92.74
2018-05-24T00:31:22.382Z,92.97
2018-05-24T00:33:49.969Z,93.24
2018-05-24T00:36:17.592Z,92.92
2018-05-24T00:38:45.177Z,92.64
2018-05-24T00:41:12.776Z,92.77
2018-05-24T00:43:40.391Z,92.69
2018-05-24T00:46:07.960Z,93.48
2018-05-24T00:48:35.530Z,94.36
2018-05-24T00:51:03.145Z,94.57
2018-05-24T00:53:30.744Z,94.45
2018-05-24T00:55:58.328Z,95.00
2018-05-24T00:58:25.968Z,95.49
2018-05-24T01:00:53.552Z,96.18
2018-05-24T01:03:21.175Z,96.19
2018-05-24T01:05:48.810Z,95.37
2018-05-24T01:08:16.401Z,94.68
2018-05-24T01:10:43.958Z,94.05
2018-05-24T01:13:11.582Z,93.87
2018-05-24T01:15:39.149Z,93.57
2018-05-24T01:18:06.757Z,93.22
2018-05-24T01:20:34.376Z,93.81
2018-05-24T01:23:01.951Z,93.99
2018-05-24T01:25:29.540Z,93.96
2018-05-24T01:27:57.179Z,93.63
2018-05-24T01:30:24.767Z,93.88
2018-05-24T01:32:52.349Z,93.82
2018-05-24T01:35:19.980Z,93.68
2018-05-24T01:37:51.280Z,93.69
2018-05-24T01:40:18.862Z,93.65
2018-05-24T01:42:46.492Z,93.49
2018-05-24T01:45:14.071Z,93.39
2018-05-24T01:47:41.658Z,93.39
2018-05-24T01:50:09.357Z,93.73
2018-05-24T01:52:36.945Z,94.06
2018-05-24T01:55:04.515Z,93.99
2018-05-24T01:57:32.146Z,94.03
2018-05-24T01:59:59.734Z,94.10
2018-05-24T02:02:27.316Z,94.43
2018-05-24T02:04:54.940Z,94.48
2018-05-24T02:07:22.527Z,94.88
2018-05-24T02:09:50.117Z,95.37
2018-05-24T02:12:17.729Z,95.82
2018-05-24T02:14:45.310Z,95.85
2018-05-24T02:17:12.891Z,95.66
2018-05-24T02:19:40.512Z,95.41
2018-05-24T02:22:08.092Z,94.97
2018-05-24T02:24:35.684Z,94.86
2018-05-24T02:27:03.326Z,94.76
2018-05-24T02:29:30.904Z,95.07
2018-05-24T02:31:58.500Z,96.10
2018-05-24T02:34:26.118Z,97.03
2018-05-24T02:36:53.724Z,97.05
2018-05-24T02:39:21.396Z,96.87
2018-05-24T02:41:49.025Z,96.08
2018-05-24T02:44:16.612Z,95.05
2018-05-24T02:46:44.217Z,95.06
2018-05-24T02:49:11.845Z,95.05
2018-05-24T02:51:39.423Z,95.34
2018-05-24T02:54:07.014Z,95.09
2018-05-24T02:56:34.626Z,95.08
2018-05-24T02:59:02.204Z,95.47
2018-05-24T03:01:29.786Z,95.44
2018-05-24T03:03:57.403Z,94.68
2018-05-24T03:06:24.990Z,94.76
2018-05-24T03:08:52.575Z,95.90
2018-05-24T03:11:20.365Z,95.04
2018-05-24T03:13:47.954Z,93.76
2018-05-24T03:16:15.552Z,93.09
2018-05-24T03:18:43.176Z,92.04
2018-05-24T03:21:10.756Z,92.11
2018-05-24T03:23:38.348Z,92.02
2018-05-24T03:26:05.976Z,91.81
2018-05-24T03:28:33.562Z,91.41
2018-05-24T03:31:01.182Z,91.05
2018-05-24T03:33:28.801Z,91.23
2018-05-24T03:35:56.388Z,89.79
2018-05-24T03:38:23.965Z,85.22
2018-05-24T03:40:51.589Z,81.29
2018-05-24T03:43:19.179Z,76.62
2018-05-24T03:45:46.770Z,72.23
2018-05-24T03:48:14.405Z,67.60
2018-05-24T03:50:41.997Z,63.27
2018-05-24T03:53:09.571Z,61.34
2018-05-24T03:55:37.196Z,60.69
2018-05-24T03:58:04.773Z,60.83
2018-05-24T04:00:44.036Z,64.23
2018-05-24T04:03:23.366Z,65.99
2018-05-24T04:05:51.000Z,68.23
2018-05-24T04:08:19.482Z,69.12
2018-05-24T04:10:47.095Z,68.46
2018-05-24T04:13:14.716Z,68.89
2018-05-24T04:15:42.309Z,70.42
2018-05-24T04:18:09.894Z,71.81
2018-05-24T04:20:37.512Z,73.04
2018-05-24T04:23:05.100Z,73.22
2018-05-24T04:25:32.677Z,72.86
2018-05-24T04:28:00.291Z,75.28
2018-05-24T04:30:27.875Z,76.05
2018-05-24T04:32:55.479Z,75.09
2018-05-24T04:35:23.127Z,73.43
2018-05-24T04:37:50.733Z,72.55
2018-05-24T04:40:18.355Z,72.20
2018-05-24T04:42:45.974Z,71.92
2018-05-24T04:45:13.547Z,71.52
2018-05-24T04:47:41.131Z,70.93
2018-05-24T04:50:08.768Z,70.96
2018-05-24T04:52:36.350Z,70.05
2018-05-24T04:55:03.939Z,71.03
2018-05-24T04:57:31.563Z,71.80
2018-05-24T04:59:59.139Z,71.37
2018-05-24T05:02:26.726Z,70.05
2018-05-24T05:04:54.344Z,69.99
2018-05-24T05:07:21.927Z,68.68
2018-05-24T05:09:49.522Z,68.07
2018-05-24T05:12:17.146Z,68.00
2018-05-24T05:14:44.737Z,66.44
2018-05-24T05:17:12.323Z,65.81
2018-05-24T05:19:39.930Z,63.99
2018-05-24T05:22:07.518Z,61.79
2018-05-24T05:24:35.119Z,60.60
2018-05-24T05:27:02.783Z,58.15
2018-05-24T05:29:30.373Z,53.60
2018-05-24T05:31:57.964Z,50.66
2018-05-24T05:34:25.584Z,47.62
2018-05-24T05:36:53.159Z,44.07
2018-05-24T05:39:20.731Z,41.44
2018-05-24T05:41:48.356Z,43.62
2018-05-24T05:44:15.938Z,41.90
2018-05-24T05:46:43.520Z,39.10
2018-05-24T05:49:11.144Z,37.31
2018-05-24T05:51:38.714Z,36.06
2018-05-24T05:54:06.283Z,34.99
2018-05-24T05:56:33.890Z,34.07
2018-05-24T05:59:01.513Z,37.21
2018-05-24T06:01:29.126Z,36.82
2018-05-24T06:03:56.734Z,37.18
2018-05-24T06:06:24.319Z,38.59
2018-05-24T06:08:51.904Z,38.15
2018-05-24T06:11:19.523Z,40.13
2018-05-24T06:13:47.168Z,42.32
2018-05-24T06:16:14.736Z,44.03
2018-05-24T06:18:42.351Z,44.47
2018-05-24T06:21:09.943Z,46.87
2018-05-24T06:23:37.528Z,47.30
2018-05-24T06:26:05.147Z,47.85
2018-05-24T06:28:32.756Z,46.90
2018-05-24T06:31:00.336Z,46.53
2018-05-24T06:33:27.953Z,43.06
2018-05-24T06:35:55.527Z,41.28
2018-05-24T06:38:23.115Z,40.48
2018-05-24T06:40:50.767Z,39.46
2018-05-24T06:43:18.398Z,40.86
2018-05-24T06:45:45.980Z,39.08
2018-05-24T06:48:13.602Z,36.93
2018-05-24T06:50:41.194Z,34.63
2018-05-24T06:53:08.776Z,32.14
2018-05-24T06:55:36.391Z,28.79
2018-05-24T06:58:04.015Z,27.09
2018-05-24T07:00:31.609Z,27.22
2018-05-24T07:02:59.234Z,27.25
2018-05-24T07:05:26.845Z,28.46
2018-05-24T07:07:54.581Z,28.71
2018-05-24T07:10:22.202Z,27.61
2018-05-24T07:12:49.802Z,27.08
2018-05-24T07:15:17.391Z,25.87
2018-05-24T07:17:45.000Z,25.99
2018-05-24T07:20:12.589Z,27.42
2018-05-24T07:22:40.163Z,28.42
2018-05-24T07:25:07.805Z,28.83
2018-05-24T07:27:35.398Z,29.69
2018-05-24T07:30:02.992Z,31.61
2018-05-24T07:32:30.651Z,32.91
2018-05-24T07:34:58.215Z,35.98
2018-05-24T07:37:25.806Z,34.07
2018-05-24T07:39:53.429Z,33.73
2018-05-24T07:42:21.017Z,34.41
2018-05-24T07:44:49.988Z,31.65
2018-05-24T07:47:18.252Z,30.15
2018-05-24T07:49:45.891Z,30.91
2018-05-24T07:52:13.494Z,29.36
2018-05-24T07:54:41.956Z,28.90
2018-05-24T07:57:10.290Z,29.83
2018-05-24T07:59:38.397Z,32.50
2018-05-24T08:02:06.922Z,32.03
2018-05-24T08:04:34.570Z,33.26
2018-05-24T08:07:02.148Z,33.79
2018-05-24T08:09:29.792Z,31.88
2018-05-24T08:11:57.378Z,31.81
2018-05-24T08:14:24.959Z,33.19
2018-05-24T08:16:52.583Z,33.58
2018-05-24T08:19:20.192Z,32.19
2018-05-24T08:21:47.765Z,33.78
2018-05-24T08:24:15.372Z,34.85
2018-05-24T08:26:42.947Z,31.65
2018-05-24T08:29:10.519Z,31.95
2018-05-24T08:31:38.130Z,32.41
2018-05-24T08:34:05.702Z,31.67
2018-05-24T08:36:33.273Z,30.53
2018-05-24T08:39:00.877Z,30.90
2018-05-24T08:41:28.444Z,33.12
2018-05-24T08:43:56.012Z,30.45
2018-05-24T08:46:23.638Z,31.01
2018-05-24T08:48:51.375Z,28.44
2018-05-24T08:51:19.286Z,26.39
2018-05-24T08:53:47.014Z,26.21
2018-05-24T08:56:14.609Z,25.50
2018-05-24T08:58:42.180Z,26.05
2018-05-24T09:01:09.783Z,25.66
2018-05-24T09:03:37.572Z,26.10
2018-05-24T09:06:05.157Z,27.15
2018-05-24T09:08:32.785Z,29.26
2018-05-24T09:11:00.377Z,28.63
2018-05-24T09:13:27.957Z,30.13
2018-05-24T09:15:55.591Z,29.83
2018-05-24T09:18:23.173Z,30.83
2018-05-24T09:20:50.758Z,32.82
2018-05-24T09:23:18.373Z,33.58
2018-05-24T09:25:45.960Z,34.07
2018-05-24T09:28:13.535Z,34.41
2018-05-24T09:30:41.144Z,33.78
2018-05-24T09:33:08.706Z,33.48
2018-05-24T09:35:36.321Z,31.37
2018-05-24T09:38:03.965Z,29.89
2018-05-24T09:40:31.539Z,29.01
2018-05-24T09:42:59.109Z,28.93
2018-05-24T09:45:26.731Z,30.01
2018-05-24T09:47:54.316Z,30.32
2018-05-24T09:50:21.892Z,30.94
2018-05-24T09:52:49.492Z,31.58
2018-05-24T09:55:17.270Z,34.09
2018-05-24T09:57:44.872Z,34.72
2018-05-24T10:00:12.529Z,34.85
2018-05-24T10:02:40.110Z,35.57
2018-05-24T10:05:07.740Z,35.23
2018-05-24T10:07:35.562Z,33.50
2018-05-24T10:10:03.166Z,34.24
2018-05-24T10:12:30.744Z,33.42
2018-05-24T10:14:58.360Z,32.27
2018-05-24T10:17:25.942Z,31.90
2018-05-24T10:19:53.530Z,31.14
2018-05-24T10:22:21.167Z,32.04
2018-05-24T10:24:48.793Z,32.09
2018-05-24T10:27:16.420Z,33.80
2018-05-24T10:29:44.044Z,32.31
2018-05-24T10:32:11.615Z,31.58
2018-05-24T10:34:39.187Z,29.89
2018-05-24T10:37:06.840Z,31.75
2018-05-24T10:39:34.859Z,32.64
2018-05-24T10:42:02.417Z,34.69
2018-05-24T10:44:30.024Z,35.83
2018-05-24T10:46:57.602Z,35.46
2018-05-24T10:49:25.168Z,35.69
2018-05-24T10:51:52.776Z,36.19
2018-05-24T10:54:20.422Z,34.67
2018-05-24T10:56:48.046Z,36.50
2018-05-24T10:59:15.638Z,37.21
2018-05-24T11:01:43.220Z,37.17
2018-05-24T11:04:10.785Z,35.00
2018-05-24T11:06:38.386Z,33.53
2018-05-24T11:09:06.860Z,32.99
2018-05-24T11:11:34.434Z,34.34
2018-05-24T11:14:02.050Z,35.11
2018-05-24T11:16:29.778Z,34.97
2018-05-24T11:18:57.367Z,35.15
2018-05-24T11:21:24.959Z,35.63
2018-05-24T11:23:52.519Z,35.14
2018-05-24T11:26:20.089Z,35.17
2018-05-24T11:28:47.713Z,34.58
2018-05-24T11:31:15.278Z,36.00
2018-05-24T11:33:42.850Z,37.19
2018-05-24T11:36:10.477Z,37.65
2018-05-24T11:38:38.045Z,38.35
2018-05-24T11:41:05.619Z,37.69
2018-05-24T11:43:33.243Z,37.04
2018-05-24T11:46:00.815Z,35.12
2018-05-24T11:48:28.388Z,32.93
2018-05-24T11:50:56.007Z,30.79
2018-05-24T11:53:23.568Z,31.81
2018-05-24T11:55:51.143Z,31.18
2018-05-24T11:58:18.775Z,31.25
2018-05-24T12:00:46.329Z,30.73
2018-05-24T12:03:13.922Z,31.86
2018-05-24T12:05:41.546Z,31.39
2018-05-24T12:08:09.121Z,28.06
2018-05-24T12:10:36.701Z,27.26
2018-05-24T12:13:04.347Z,27.74
2018-05-24T12:15:31.936Z,27.33
2018-05-24T12:17:59.509Z,31.10
2018-05-24T12:20:27.116Z,32.43
2018-05-24T12:22:54.691Z,34.18
2018-05-24T12:25:22.263Z,34.80
2018-05-24T12:27:49.862Z,36.47
2018-05-24T12:32:58.818Z,40.43
2018-05-24T12:35:28.321Z,44.22
2018-05-24T12:37:56.026Z,44.70
2018-05-24T12:40:23.638Z,46.93
2018-05-24T12:42:51.208Z,47.55
2018-05-24T12:45:18.764Z,47.86
2018-05-24T12:47:46.404Z,49.30
2018-05-24T12:50:14.319Z,49.13
2018-05-24T12:52:41.922Z,48.73
2018-05-24T12:55:09.563Z,49.68
2018-05-24T12:57:37.139Z,47.92
2018-05-24T13:00:04.705Z,47.26
2018-05-24T13:02:32.316Z,47.47
2018-05-24T13:04:59.891Z,44.36
2018-05-24T13:07:27.476Z,43.14
2018-05-24T13:09:55.117Z,43.05
2018-05-24T13:12:22.714Z,41.13
2018-05-24T13:14:50.279Z,41.25
2018-05-24T13:17:17.883Z,41.86
2018-05-24T13:19:45.458Z,40.63
2018-05-24T13:22:13.033Z,40.38
2018-05-24T13:24:40.647Z,37.74
2018-05-24T13:27:08.200Z,38.98
2018-05-24T13:29:35.819Z,40.20
2018-05-24T13:32:03.434Z,41.11
2018-05-24T13:34:31.088Z,39.82
2018-05-24T13:36:58.621Z,40.38
2018-05-24T13:39:26.512Z,40.12
2018-05-24T13:41:54.309Z,40.96
2018-05-24T13:44:21.984Z,41.21
2018-05-24T13:46:49.681Z,41.45
2018-05-24T13:49:18.310Z,40.32
2018-05-24T13:51:47.538Z,40.18
2018-05-24T13:54:16.882Z,39.91
2018-05-24T13:56:46.700Z,38.82
2018-05-24T13:59:15.408Z,39.77
2018-05-24T14:01:43.972Z,40.40
2018-05-24T14:04:12.673Z,40.56
2018-05-24T14:06:40.346Z,41.28
2018-05-24T14:09:07.959Z,41.30
2018-05-24T14:11:35.534Z,42.10
2018-05-24T14:14:03.103Z,40.87
2018-05-24T14:16:30.693Z,41.67
2018-05-24T14:18:58.253Z,41.53
2018-05-24T14:21:26.613Z,42.47
2018-05-24T14:23:55.627Z,41.87
2018-05-24T14:26:24.461Z,40.86
2018-05-24T14:28:53.152Z,40.69
2018-05-24T14:31:22.624Z,40.17
2018-05-24T14:33:50.330Z,40.66
2018-05-24T14:36:17.996Z,39.97
2018-05-24T14:38:45.638Z,39.71
2018-05-24T14:41:13.204Z,39.55
2018-05-24T14:43:40.800Z,41.43
2018-05-24T14:46:08.393Z,40.16
2018-05-24T14:48:35.985Z,41.31
2018-05-24T14:51:03.603Z,42.81
2018-05-24T14:53:31.290Z,42.12
2018-05-24T14:55:58.877Z,42.78
2018-05-24T14:58:26.467Z,42.83
2018-05-24T15:00:54.193Z,41.09
2018-05-24T15:03:21.787Z,41.49
2018-05-24T15:05:49.357Z,40.09
2018-05-24T15:08:16.979Z,41.45
2018-05-24T15:10:44.546Z,42.36
2018-05-24T15:13:23.861Z,43.81
2018-05-24T15:15:51.492Z,43.31
2018-05-24T15:18:19.077Z,44.19
2018-05-24T15:20:47.689Z,44.13
2018-05-24T15:23:15.273Z,45.02
2018-05-24T15:25:42.840Z,45.82
2018-05-24T15:28:10.452Z,46.05
2018-05-24T15:30:38.027Z,46.82
2018-05-24T15:33:05.637Z,47.83
2018-05-24T15:35:33.271Z,48.74
2018-05-24T15:38:00.838Z,48.83
2018-05-24T15:40:28.413Z,48.97
2018-05-24T15:42:56.020Z,48.68
2018-05-24T15:45:23.607Z,49.40
2018-05-24T15:47:51.184Z,49.59
2018-05-24T15:50:18.783Z,48.87
2018-05-24T15:52:46.359Z,49.78
2018-05-24T15:55:13.936Z,49.67
2018-05-24T15:57:41.567Z,48.80
2018-05-24T16:00:09.241Z,49.05
2018-05-24T16:02:36.821Z,50.07
2018-05-24T16:05:04.452Z,49.96
2018-05-24T16:07:32.047Z,50.31
2018-05-24T16:09:59.666Z,51.92
2018-05-24T16:12:27.280Z,52.84
2018-05-24T16:14:54.858Z,52.75
2018-05-24T16:17:22.441Z,53.85
2018-05-24T16:19:50.049Z,54.01
2018-05-24T16:22:17.664Z,54.18
2018-05-24T16:24:45.261Z,53.66
2018-05-24T16:27:12.888Z,53.52
2018-05-24T16:29:40.472Z,53.00
2018-05-24T16:32:08.059Z,53.58
2018-05-24T16:34:35.660Z,53.94
2018-05-24T16:37:03.298Z,54.98
2018-05-24T16:39:30.869Z,54.75
2018-05-24T16:41:58.510Z,56.30
2018-05-24T16:44:26.104Z,56.53
2018-05-24T16:46:53.739Z,57.44
2018-05-24T16:49:21.361Z,58.63
2018-05-24T16:51:48.927Z,58.62
2018-05-24T16:54:16.551Z,59.85
2018-05-24T16:56:44.157Z,60.63
2018-05-24T16:59:11.745Z,59.69
2018-05-24T17:01:39.328Z,59.35
2018-05-24T17:04:06.955Z,60.06
2018-05-24T17:06:34.567Z,60.04
2018-05-24T17:09:02.167Z,61.31
2018-05-24T17:11:29.774Z,61.39
2018-05-24T17:13:57.378Z,62.01
2018-05-24T17:16:24.958Z,63.69
2018-05-24T17:18:52.665Z,63.54
2018-05-24T17:21:20.239Z,64.28
2018-05-24T17:23:47.830Z,65.14
2018-05-24T17:26:15.460Z,65.89
2018-05-24T17:28:43.052Z,66.18
2018-05-24T17:31:10.634Z,67.01
2018-05-24T17:33:38.363Z,67.16
2018-05-24T17:36:05.932Z,68.14
2018-05-24T17:38:33.521Z,68.12
2018-05-24T17:41:01.136Z,69.26
2018-05-24T17:43:28.774Z,70.74
2018-05-24T17:45:56.310Z,72.21
2018-05-24T17:48:23.949Z,73.23
2018-05-24T17:50:51.558Z,74.24
2018-05-24T17:53:19.143Z,75.11
2018-05-24T17:55:46.772Z,74.99
2018-05-24T17:58:14.920Z,74.47
2018-05-24T18:00:42.562Z,74.54
2018-05-24T18:03:10.193Z,75.36
2018-05-24T18:05:37.788Z,76.00
2018-05-24T18:08:05.363Z,77.04
2018-05-24T18:10:32.990Z,77.09
2018-05-24T18:13:00.582Z,79.41
2018-05-24T18:15:28.153Z,81.32
2018-05-24T18:17:55.783Z,81.18
2018-05-24T18:20:23.363Z,81.25
2018-05-24T18:22:50.969Z,80.24
2018-05-24T18:25:18.610Z,80.76
2018-05-24T18:27:46.422Z,81.24
2018-05-24T18:30:14.200Z,81.28
2018-05-24T18:32:41.812Z,81.83
2018-05-24T18:35:09.396Z,81.83
2018-05-24T18:37:36.971Z,81.89
2018-05-24T18:40:04.591Z,82.37
2018-05-24T18:42:32.170Z,82.72
2018-05-24T18:44:59.849Z,82.61
2018-05-24T18:47:28.868Z,82.82
2018-05-24T18:49:56.451Z,82.95
2018-05-24T18:52:24.029Z,83.21
2018-05-24T18:54:51.621Z,83.81
2018-05-24T18:57:19.196Z,84.08
2018-05-24T18:59:46.775Z,84.33
2018-05-24T19:02:14.395Z,84.15
2018-05-24T19:04:41.984Z,84.38
2018-05-24T19:07:09.564Z,85.03
2018-05-24T19:09:37.166Z,85.67
2018-05-24T19:12:04.751Z,85.68
2018-05-24T19:14:32.420Z,86.77
2018-05-24T19:17:00.041Z,87.11
2018-05-24T19:19:28.514Z,87.10
2018-05-24T19:21:56.262Z,86.97
2018-05-24T19:24:27.860Z,87.90
2018-05-24T19:26:55.736Z,88.84
2018-05-24T19:29:24.950Z,89.35
2018-05-24T19:31:57.370Z,89.63
2018-05-24T19:34:28.351Z,88.75
2018-05-24T19:36:56.288Z,88.82
2018-05-24T19:39:23.863Z,89.45
2018-05-24T19:41:51.442Z,91.58
2018-05-24T19:44:19.058Z,91.15
2018-05-24T19:46:46.636Z,88.22
2018-05-24T19:49:14.219Z,89.21
2018-05-24T19:51:41.838Z,87.80
2018-05-24T19:54:09.478Z,87.54
2018-05-24T19:56:37.065Z,87.41
2018-05-24T19:59:04.679Z,89.04
2018-05-24T20:01:32.271Z,89.78
2018-05-24T20:03:59.853Z,90.18
2018-05-24T20:06:27.467Z,90.56
2018-05-24T20:08:55.041Z,91.36
2018-05-24T20:11:22.619Z,92.49
2018-05-24T20:13:50.231Z,92.93
2018-05-24T20:16:17.814Z,93.56
2018-05-24T20:18:45.392Z,94.29
2018-05-24T20:21:13.000Z,94.15
2018-05-24T20:23:40.583Z,94.69
2018-05-24T20:26:08.166Z,95.12
2018-05-24T20:28:35.897Z,95.42
2018-05-24T20:31:03.467Z,96.13
2018-05-24T20:33:31.051Z,96.38
2018-05-24T20:35:58.682Z,96.59
2018-05-24T20:38:26.255Z,97.01
2018-05-24T20:40:53.867Z,96.99
2018-05-24T20:43:21.494Z,97.00
2018-05-24T20:45:49.080Z,97.51
2018-05-24T20:48:16.692Z,97.95
2018-05-24T20:50:44.364Z,98.32
2018-05-24T20:53:11.936Z,98.04
2018-05-24T20:55:39.528Z,98.47
2018-05-24T20:58:07.139Z,97.95
2018-05-24T21:00:34.712Z,97.58
2018-05-24T21:03:02.292Z,97.25
2018-05-24T21:05:29.886Z,97.72
2018-05-24T21:07:57.459Z,97.31
2018-05-24T21:10:25.043Z,96.77
2018-05-24T21:12:52.640Z,97.01
2018-05-24T21:15:20.207Z,97.17
2018-05-24T21:17:47.837Z,96.77
2018-05-24T21:20:15.455Z,96.70
2018-05-24T21:22:43.046Z,96.84
2018-05-24T21:25:10.794Z,97.40
2018-05-24T21:27:38.431Z,97.14
2018-05-24T21:30:06.060Z,97.05
2018-05-24T21:32:33.643Z,96.70
2018-05-24T21:35:01.260Z,96.21
2018-05-24T21:37:28.844Z,96.93
2018-05-24T21:39:56.439Z,97.45
2018-05-24T21:42:24.055Z,97.17
2018-05-24T21:44:51.651Z,97.10
2018-05-24T21:47:19.223Z,96.35
2018-05-24T21:49:46.851Z,96.06
2018-05-24T21:52:14.441Z,95.90
2018-05-24T21:54:42.011Z,96.49
2018-05-24T21:57:09.632Z,95.74
2018-05-24T21:59:37.215Z,95.87
2018-05-24T22:02:04.832Z,96.56
2018-05-24T22:04:32.473Z,95.84
2018-05-24T22:07:00.055Z,95.72
2018-05-24T22:09:27.650Z,96.61
2018-05-24T22:11:55.282Z,96.73
2018-05-24T22:14:22.856Z,96.81
2018-05-24T22:16:50.493Z,97.05
2018-05-24T22:19:18.126Z,97.59
2018-05-24T22:21:45.705Z,97.74
2018-05-24T22:24:13.280Z,97.69
2018-05-24T22:26:40.897Z,97.36
2018-05-24T22:29:08.489Z,97.60
2018-05-24T22:31:36.075Z,97.16
2018-05-24T22:34:03.713Z,97.41
2018-05-24T22:36:31.295Z,96.94
2018-05-24T22:38:58.882Z,96.66
2018-05-24T22:41:26.513Z,96.83
2018-05-24T22:43:54.105Z,97.28
2018-05-24T22:46:21.692Z,97.62
2018-05-24T22:48:49.348Z,97.24
2018-05-24T22:51:16.934Z,96.55
2018-05-24T22:53:44.523Z,97.01
2018-05-24T22:56:12.152Z,97.32
2018-05-24T22:58:39.739Z,96.94
2018-05-24T23:01:07.329Z,96.73
2018-05-24T23:03:34.951Z,96.75
2018-05-24T23:06:02.526Z,96.36
2018-05-24T23:08:30.101Z,95.76
2018-05-24T23:10:57.767Z,95.70
2018-05-24T23:13:25.366Z,95.88
2018-05-24T23:15:52.955Z,94.66
2018-05-24T23:18:20.580Z,94.44
2018-05-24T23:20:48.163Z,95.04
2018-05-24T23:23:15.765Z,96.24
2018-05-24T23:25:43.399Z,96.38
2018-05-24T23:28:10.968Z,96.01
2018-05-24T23:30:38.540Z,96.46
2018-05-24T23:33:06.146Z,97.42
2018-05-24T23:35:33.722Z,97.69
2018-05-24T23:38:01.308Z,97.27
2018-05-24T23:40:28.926Z,96.77
2018-05-24T23:42:56.506Z,96.58
2018-05-24T23:45:24.089Z,97.25
2018-05-24T23:47:51.695Z,97.24
2018-05-24T23:50:19.277Z,97.87
2018-05-24T23:52:46.861Z,98.15
2018-05-24T23:55:14.525Z,98.46
2018-05-24T23:57:42.107Z,97.73
